Time;durP1;ratioP1;P1;durP2;ratioP2;P2;SDS_P1;SDS_P2;PMS_P1;PMS_P2;Temp;Humidity;BMP_temperature;BMP_pressure;BME280_temperature;BME280_humidity;BME280_pressure;Samples;Min_cycle;Max_cycle;Signal;HPM_P1;HPM_P2
2023/07/03 00:00:38;;;;;;;15.02;3.58;;;17.90;93.20;;;;;;4835941;29;20032;-71
2023/07/03 00:03:04;;;;;;;11.45;3.17;;;17.90;93.40;;;;;;4837096;29;20052;-71
2023/07/03 00:05:31;;;;;;;12.30;3.72;;;17.90;93.40;;;;;;4830621;29;20346;-71
2023/07/03 00:07:57;;;;;;;10.38;2.63;;;17.90;93.50;;;;;;4812220;29;20450;-71
2023/07/03 00:10:23;;;;;;;12.68;2.85;;;17.90;93.50;;;;;;4818536;29;20029;-72
2023/07/03 00:12:50;;;;;;;10.35;2.70;;;17.90;93.60;;;;;;4830631;29;21366;-72
2023/07/03 00:15:16;;;;;;;9.75;2.47;;;17.80;93.60;;;;;;4836537;29;20033;-72
2023/07/03 00:17:46;;;;;;;8.57;2.00;;;17.80;93.70;;;;;;4834936;29;20045;-71
2023/07/03 00:20:16;;;;;;;10.23;1.90;;;17.80;93.60;;;;;;4816796;29;20390;-71
2023/07/03 00:22:46;;;;;;;13.63;2.55;;;17.80;93.70;;;;;;4841874;29;20033;-70
2023/07/03 00:25:12;;;;;;;8.23;1.75;;;17.80;93.80;;;;;;4845458;29;20036;-70
2023/07/03 00:27:39;;;;;;;6.75;1.63;;;17.80;93.90;;;;;;4840195;29;20032;-70
2023/07/03 00:30:06;;;;;;;14.05;2.33;;;17.80;94.00;;;;;;4836783;29;20052;-71
2023/07/03 00:32:33;;;;;;;8.07;1.85;;;17.80;94.00;;;;;;4816263;29;20032;-70
2023/07/03 00:34:59;;;;;;;10.13;1.90;;;17.80;94.10;;;;;;4836777;29;20761;-70
2023/07/03 00:37:26;;;;;;;7.82;1.77;;;17.70;94.10;;;;;;4820524;29;20397;-70
2023/07/03 00:39:53;;;;;;;8.98;1.70;;;17.70;94.10;;;;;;4836096;29;20052;-70
2023/07/03 00:42:24;;;;;;;9.93;2.22;;;17.70;94.10;;;;;;4839184;29;20044;-70
2023/07/03 00:44:50;;;;;;;9.95;1.85;;;17.70;94.20;;;;;;4830488;29;20128;-70
2023/07/03 00:47:17;;;;;;;9.63;2.22;;;17.60;94.20;;;;;;4809247;29;20467;-71
2023/07/03 00:49:43;;;;;;;17.02;2.83;;;17.60;94.20;;;;;;4802963;29;20353;-71
2023/07/03 00:52:12;;;;;;;13.82;2.38;;;17.60;94.40;;;;;;4831614;29;20030;-70
2023/07/03 00:54:39;;;;;;;8.50;1.92;;;17.60;94.50;;;;;;4834777;29;20434;-70
2023/07/03 00:57:10;;;;;;;10.95;3.25;;;17.60;94.60;;;;;;4834896;29;20381;-71
2023/07/03 00:59:36;;;;;;;11.75;2.30;;;17.50;94.60;;;;;;4837590;29;21269;-70
2023/07/03 01:02:18;;;;;;;6.90;1.70;;;17.50;94.70;;;;;;4836904;29;20720;-70
2023/07/03 01:04:57;;;;;;;8.50;1.77;;;17.50;94.70;;;;;;4844250;29;20044;-70
2023/07/03 01:07:30;;;;;;;11.07;2.45;;;17.40;94.70;;;;;;4821074;29;20425;-70
2023/07/03 01:10:05;;;;;;;7.93;1.90;;;17.50;94.90;;;;;;4833848;29;20067;-70
2023/07/03 01:12:35;;;;;;;8.00;2.33;;;17.40;94.90;;;;;;4814475;29;20052;-70
2023/07/03 01:15:07;;;;;;;10.40;2.50;;;17.40;94.90;;;;;;4819952;29;20587;-70
2023/07/03 01:17:36;;;;;;;12.00;2.30;;;17.40;95.10;;;;;;4835294;29;20042;-70
2023/07/03 01:20:04;;;;;;;8.68;1.83;;;17.40;95.00;;;;;;4844743;29;20056;-70
2023/07/03 01:22:36;;;;;;;10.63;2.05;;;17.40;95.00;;;;;;4823063;29;20052;-70
2023/07/03 01:25:08;;;;;;;12.07;2.80;;;17.30;95.00;;;;;;4837421;29;20057;-70
2023/07/03 01:27:42;;;;;;;8.50;1.60;;;17.30;95.10;;;;;;4820867;29;20040;-70
2023/07/03 01:30:13;;;;;;;10.98;1.90;;;17.20;95.00;;;;;;4833364;29;20462;-70
2023/07/03 01:32:40;;;;;;;10.82;2.92;;;17.20;95.10;;;;;;4828254;29;20040;-70
2023/07/03 01:35:08;;;;;;;9.25;2.05;;;17.20;95.20;;;;;;4838599;29;20037;-70
2023/07/03 01:37:38;;;;;;;9.27;2.17;;;17.20;95.20;;;;;;4820152;29;20041;-70
2023/07/03 01:40:08;;;;;;;9.45;1.70;;;17.10;95.20;;;;;;4812356;29;20048;-70
2023/07/03 01:42:37;;;;;;;7.05;1.60;;;17.10;95.30;;;;;;4836677;29;20041;-70
2023/07/03 01:45:05;;;;;;;8.80;1.58;;;17.00;95.40;;;;;;4819547;29;20284;-70
2023/07/03 01:47:32;;;;;;;7.00;2.10;;;17.00;95.40;;;;;;4833671;29;20033;-70
2023/07/03 01:50:00;;;;;;;10.02;2.15;;;16.90;95.50;;;;;;4830528;29;20041;-69
2023/07/03 01:52:31;;;;;;;13.27;1.63;;;16.90;95.60;;;;;;4813716;29;20559;-70
2023/07/03 01:55:24;;;;;;;8.93;2.38;;;16.80;95.70;;;;;;4838110;29;20048;-71
2023/07/03 01:57:52;;;;;;;10.45;1.88;;;16.70;95.80;;;;;;4830606;29;20056;-70
2023/07/03 02:00:34;;;;;;;9.82;1.95;;;16.70;96.00;;;;;;4846142;29;20049;-70
2023/07/03 02:03:05;;;;;;;12.02;2.35;;;16.70;96.00;;;;;;4850219;29;20428;-70
2023/07/03 02:05:36;;;;;;;9.03;2.00;;;16.70;96.30;;;;;;4837233;29;20820;-70
2023/07/03 02:08:04;;;;;;;9.10;2.30;;;16.60;96.30;;;;;;4825847;29;20316;-71
2023/07/03 02:10:31;;;;;;;7.55;2.05;;;16.70;96.50;;;;;;4820355;29;20524;-71
2023/07/03 02:12:57;;;;;;;7.80;1.67;;;16.60;96.50;;;;;;4831138;29;20034;-71
2023/07/03 02:15:24;;;;;;;9.05;1.90;;;16.60;96.50;;;;;;4838258;29;20072;-70
2023/07/03 02:17:54;;;;;;;7.70;1.90;;;16.70;96.60;;;;;;4848306;29;20029;-70
2023/07/03 02:20:22;;;;;;;9.52;2.28;;;16.70;96.60;;;;;;4830300;29;20036;-70
2023/07/03 02:22:49;;;;;;;11.38;2.70;;;16.70;96.70;;;;;;4815616;29;20029;-70
2023/07/03 02:25:16;;;;;;;11.10;2.10;;;16.70;96.80;;;;;;4823984;29;20048;-70
2023/07/03 02:27:45;;;;;;;10.02;2.72;;;16.70;96.80;;;;;;4837692;29;20037;-70
2023/07/03 02:30:12;;;;;;;10.65;3.10;;;16.60;96.90;;;;;;4817794;29;20037;-70
2023/07/03 02:32:40;;;;;;;11.75;2.47;;;16.60;97.00;;;;;;4832155;29;20040;-70
2023/07/03 02:35:08;;;;;;;9.70;2.15;;;16.60;97.10;;;;;;4845671;29;20045;-70
2023/07/03 02:37:35;;;;;;;12.82;2.70;;;16.70;97.20;;;;;;4845884;29;20666;-70
2023/07/03 02:40:01;;;;;;;11.63;2.58;;;16.60;97.30;;;;;;4843175;29;20061;-70
2023/07/03 02:42:28;;;;;;;12.82;2.83;;;16.60;97.40;;;;;;4816118;29;20504;-70
2023/07/03 02:44:54;;;;;;;13.57;3.25;;;16.60;97.50;;;;;;4818846;29;20057;-70
2023/07/03 02:47:20;;;;;;;15.30;3.38;;;16.60;97.60;;;;;;4820294;29;20391;-70
2023/07/03 02:49:47;;;;;;;14.80;2.72;;;16.60;97.80;;;;;;4832999;29;20378;-70
2023/07/03 02:52:14;;;;;;;12.07;2.60;;;16.60;98.00;;;;;;4833134;29;20041;-70
2023/07/03 02:54:40;;;;;;;12.45;2.53;;;16.50;97.90;;;;;;4831949;29;20416;-69
2023/07/03 02:57:08;;;;;;;11.98;2.42;;;16.50;98.00;;;;;;4844364;29;20056;-70
2023/07/03 02:59:34;;;;;;;9.45;1.80;;;16.50;98.20;;;;;;4806833;29;20509;-72
2023/07/03 03:02:01;;;;;;;8.95;2.15;;;16.50;98.30;;;;;;4832000;29;20034;-72
2023/07/03 03:04:29;;;;;;;20.27;3.50;;;16.50;98.40;;;;;;4835720;29;20045;-72
2023/07/03 03:06:56;;;;;;;10.82;2.25;;;16.50;98.60;;;;;;4836368;29;20032;-72
2023/07/03 03:09:23;;;;;;;13.10;3.75;;;16.50;98.70;;;;;;4825072;29;20059;-71
2023/07/03 03:11:51;;;;;;;11.93;2.92;;;16.50;98.80;;;;;;4819507;29;20051;-72
2023/07/03 03:14:17;;;;;;;10.82;2.65;;;16.60;99.00;;;;;;4829998;29;20049;-72
2023/07/03 03:16:43;;;;;;;12.60;3.10;;;16.60;99.00;;;;;;4841202;29;20034;-72
2023/07/03 03:19:10;;;;;;;14.45;2.85;;;16.60;99.20;;;;;;4832761;29;20036;-72
2023/07/03 03:21:38;;;;;;;18.00;3.22;;;16.60;99.70;;;;;;4813975;29;20049;-72
2023/07/03 03:24:04;;;;;;;13.07;2.78;;;16.60;99.90;;;;;;4835850;29;20517;-72
2023/07/03 03:26:31;;;;;;;12.70;2.88;;;16.50;99.90;;;;;;4835254;29;20029;-71
2023/07/03 03:28:57;;;;;;;14.32;2.88;;;16.50;99.90;;;;;;4838614;29;20036;-72
2023/07/03 03:31:25;;;;;;;12.52;2.85;;;16.50;99.90;;;;;;4812507;29;20049;-72
2023/07/03 03:33:57;;;;;;;12.05;2.88;;;16.40;99.90;;;;;;4829358;29;20465;-71
2023/07/03 03:36:23;;;;;;;13.82;3.45;;;16.40;99.90;;;;;;4820622;29;20025;-72
2023/07/03 03:38:50;;;;;;;12.32;3.00;;;16.40;99.90;;;;;;4835422;29;20504;-71
2023/07/03 03:41:16;;;;;;;13.98;3.10;;;16.40;99.90;;;;;;4832379;29;20085;-73
2023/07/03 03:43:47;;;;;;;11.02;2.75;;;16.40;99.90;;;;;;4819411;29;20045;-72
2023/07/03 03:46:14;;;;;;;15.43;3.53;;;16.40;99.90;;;;;;4820373;29;20033;-71
2023/07/03 03:48:41;;;;;;;19.88;4.18;;;16.40;99.90;;;;;;4842891;29;20033;-72
2023/07/03 03:51:09;;;;;;;18.00;3.50;;;16.40;99.90;;;;;;4825699;29;21629;-71
2023/07/03 03:53:36;;;;;;;21.42;3.40;;;16.40;99.90;;;;;;4806224;29;20489;-71
2023/07/03 03:56:03;;;;;;;17.98;3.72;;;16.40;99.90;;;;;;4838142;29;20043;-72
2023/07/03 03:58:32;;;;;;;19.55;3.97;;;16.40;99.90;;;;;;4820833;29;20516;-71
2023/07/03 04:00:59;;;;;;;13.18;3.30;;;16.40;99.90;;;;;;4831715;29;20041;-72
2023/07/03 04:03:25;;;;;;;16.98;3.63;;;16.40;99.90;;;;;;4816031;29;20041;-72
2023/07/03 04:05:51;;;;;;;12.90;3.38;;;16.40;99.90;;;;;;4834484;29;20623;-71
2023/07/03 04:08:18;;;;;;;20.20;3.67;;;16.40;99.90;;;;;;4842459;29;20045;-71
2023/07/03 04:10:44;;;;;;;13.90;3.38;;;16.50;99.90;;;;;;4840445;29;20045;-71
2023/07/03 04:13:11;;;;;;;16.15;3.92;;;16.50;99.90;;;;;;4838480;29;20038;-72
2023/07/03 04:15:51;;;;;;;22.83;4.10;;;16.50;99.90;;;;;;4833222;29;20036;-71
2023/07/03 04:18:22;;;;;;;23.13;4.28;;;16.50;99.90;;;;;;4834643;29;20570;-70
2023/07/03 04:20:49;;;;;;;18.13;4.10;;;16.50;99.90;;;;;;4814738;29;20075;-72
2023/07/03 04:23:16;;;;;;;20.13;3.17;;;16.50;99.90;;;;;;4816688;29;20048;-70
2023/07/03 04:25:42;;;;;;;20.15;4.03;;;16.50;99.90;;;;;;4805895;29;20718;-71
2023/07/03 04:28:10;;;;;;;15.38;3.10;;;16.50;99.90;;;;;;4830286;29;20048;-72
2023/07/03 04:30:37;;;;;;;16.98;4.50;;;16.40;99.90;;;;;;4844105;29;20048;-71
2023/07/03 04:33:03;;;;;;;14.45;3.63;;;16.40;99.90;;;;;;4817088;29;20056;-71
2023/07/03 04:35:30;;;;;;;13.98;3.17;;;16.40;99.90;;;;;;4833849;29;20045;-71
2023/07/03 04:37:56;;;;;;;17.67;3.80;;;16.40;99.90;;;;;;4835339;29;20037;-71
2023/07/03 04:40:23;;;;;;;16.73;3.20;;;16.50;99.90;;;;;;4832682;29;20080;-71
2023/07/03 04:42:49;;;;;;;15.00;3.28;;;16.50;99.90;;;;;;4827966;29;20041;-72
2023/07/03 04:45:16;;;;;;;20.90;4.35;;;16.60;99.90;;;;;;4835325;29;21676;-71
2023/07/03 04:47:42;;;;;;;16.00;3.70;;;16.60;99.90;;;;;;4843660;29;20670;-72
2023/07/03 04:50:15;;;;;;;19.52;4.85;;;16.60;99.90;;;;;;4843686;29;20429;-72
2023/07/03 04:52:43;;;;;;;15.07;3.30;;;16.60;99.90;;;;;;4800275;29;20033;-72
2023/07/03 04:55:14;;;;;;;15.90;3.55;;;16.60;99.90;;;;;;4818913;29;20429;-72
2023/07/03 04:57:42;;;;;;;15.68;3.72;;;16.70;99.90;;;;;;4836055;29;20061;-71
2023/07/03 05:00:17;;;;;;;19.05;3.92;;;16.70;99.90;;;;;;4833860;29;20041;-71
2023/07/03 05:02:48;;;;;;;17.75;3.55;;;16.70;99.90;;;;;;4834482;29;20497;-71
2023/07/03 05:05:16;;;;;;;22.45;4.80;;;16.70;99.90;;;;;;4846661;29;20509;-73
2023/07/03 05:07:44;;;;;;;22.45;5.03;;;16.70;99.90;;;;;;4826241;29;20037;-72
2023/07/03 05:10:12;;;;;;;17.73;4.03;;;16.70;99.90;;;;;;4830504;29;20036;-72
2023/07/03 05:12:39;;;;;;;16.67;4.05;;;16.70;99.90;;;;;;4796732;29;20400;-72
2023/07/03 05:15:09;;;;;;;14.52;3.60;;;16.70;99.90;;;;;;4834108;29;20077;-72
2023/07/03 05:17:38;;;;;;;16.85;3.97;;;16.70;99.90;;;;;;4835074;29;20048;-72
2023/07/03 05:20:15;;;;;;;21.02;4.07;;;16.80;99.90;;;;;;4831991;29;20049;-71
2023/07/03 05:22:43;;;;;;;16.02;4.22;;;16.80;99.90;;;;;;4821400;29;20033;-71
2023/07/03 05:25:11;;;;;;;21.63;4.10;;;16.80;99.90;;;;;;4843450;29;20045;-74
2023/07/03 05:27:38;;;;;;;15.85;3.22;;;16.80;99.90;;;;;;4839122;29;20346;-72
2023/07/03 05:30:06;;;;;;;21.10;4.38;;;16.90;99.90;;;;;;4835241;29;20037;-72
2023/07/03 05:32:33;;;;;;;17.90;4.82;;;16.90;99.90;;;;;;4835019;29;20049;-72
2023/07/03 05:35:02;;;;;;;18.23;4.20;;;16.90;99.90;;;;;;4837722;29;20041;-73
2023/07/03 05:37:28;;;;;;;15.13;4.07;;;16.90;99.90;;;;;;4823411;29;20033;-72
2023/07/03 05:39:55;;;;;;;20.70;4.97;;;16.90;99.90;;;;;;4841496;29;20032;-73
2023/07/03 05:42:22;;;;;;;17.00;3.78;;;16.90;99.90;;;;;;4826633;29;20041;-72
2023/07/03 05:44:49;;;;;;;23.92;5.60;;;16.90;99.90;;;;;;4848584;29;20029;-72
2023/07/03 05:47:16;;;;;;;13.55;2.80;;;17.00;99.90;;;;;;4839505;29;20440;-72
2023/07/03 05:49:43;;;;;;;16.27;4.07;;;17.10;99.90;;;;;;4827372;29;21079;-73
2023/07/03 05:52:10;;;;;;;21.80;4.30;;;17.10;99.90;;;;;;4832932;29;20054;-72
2023/07/03 05:54:37;;;;;;;17.90;3.85;;;17.20;99.90;;;;;;4823146;29;20511;-71
2023/07/03 05:57:09;;;;;;;17.15;3.45;;;17.20;99.90;;;;;;4840208;29;20544;-71
2023/07/03 05:59:37;;;;;;;20.77;4.40;;;17.40;99.90;;;;;;4842796;29;20315;-72
2023/07/03 06:02:07;;;;;;;21.70;5.32;;;17.50;99.90;;;;;;4840965;29;20404;-72
2023/07/03 06:04:33;;;;;;;17.63;3.67;;;17.60;99.90;;;;;;4837852;29;20048;-72
2023/07/03 06:07:00;;;;;;;11.38;2.85;;;17.90;99.90;;;;;;4836327;29;20048;-71
2023/07/03 06:09:28;;;;;;;17.15;4.20;;;18.20;99.90;;;;;;4835958;29;20025;-71
2023/07/03 06:11:55;;;;;;;21.25;4.28;;;18.40;99.90;;;;;;4815632;29;20041;-72
2023/07/03 06:14:23;;;;;;;20.02;3.83;;;18.50;99.90;;;;;;4854152;29;20033;-72
2023/07/03 06:16:50;;;;;;;18.10;4.30;;;18.60;99.90;;;;;;4842442;29;20045;-72
2023/07/03 06:19:18;;;;;;;22.77;5.07;;;18.70;99.90;;;;;;4844945;29;20021;-71
2023/07/03 06:21:45;;;;;;;13.52;3.97;;;18.80;99.90;;;;;;4841162;29;20049;-72
2023/07/03 06:24:13;;;;;;;17.67;4.10;;;18.80;99.90;;;;;;4839084;29;20125;-72
2023/07/03 06:26:40;;;;;;;19.30;4.05;;;18.90;99.90;;;;;;4838581;29;20044;-72
2023/07/03 06:29:08;;;;;;;16.58;3.33;;;18.80;99.90;;;;;;4834874;29;20051;-73
2023/07/03 06:31:35;;;;;;;17.08;3.92;;;18.70;99.90;;;;;;4834743;29;20041;-72
2023/07/03 06:34:03;;;;;;;18.90;4.13;;;18.70;99.90;;;;;;4839035;29;20041;-72
2023/07/03 06:36:31;;;;;;;16.80;4.30;;;18.60;99.90;;;;;;4854114;29;20044;-73
2023/07/03 06:39:00;;;;;;;17.30;4.20;;;18.50;99.90;;;;;;4816898;29;20037;-71
2023/07/03 06:41:29;;;;;;;20.77;4.45;;;18.40;99.90;;;;;;4836500;29;20048;-71
2023/07/03 06:43:56;;;;;;;14.27;4.35;;;18.30;99.90;;;;;;4843695;29;21399;-72
2023/07/03 06:46:24;;;;;;;13.68;3.35;;;18.20;99.90;;;;;;4826090;29;20128;-73
2023/07/03 06:48:52;;;;;;;16.45;4.03;;;18.30;99.90;;;;;;4825141;29;20041;-72
2023/07/03 06:51:19;;;;;;;18.92;4.22;;;18.30;99.90;;;;;;4831287;29;20068;-71
2023/07/03 06:53:45;;;;;;;14.55;4.00;;;18.40;99.90;;;;;;4842072;29;20040;-72
2023/07/03 06:56:11;;;;;;;14.48;3.90;;;18.40;99.90;;;;;;4849003;29;20057;-72
2023/07/03 06:58:38;;;;;;;17.75;3.30;;;18.40;99.90;;;;;;4846207;29;20037;-71
2023/07/03 07:01:09;;;;;;;15.68;4.38;;;18.40;99.90;;;;;;4837237;29;20067;-72
2023/07/03 07:03:36;;;;;;;17.17;4.55;;;18.50;99.90;;;;;;4819790;29;20387;-72
2023/07/03 07:06:14;;;;;;;10.38;2.80;;;18.60;99.90;;;;;;4836159;29;20045;-71
2023/07/03 07:08:41;;;;;;;17.65;4.18;;;18.60;99.90;;;;;;4835871;29;20413;-72
2023/07/03 07:11:10;;;;;;;18.58;4.10;;;18.70;99.90;;;;;;4835055;29;20048;-72
2023/07/03 07:13:39;;;;;;;11.52;3.53;;;18.80;99.90;;;;;;4846115;29;20037;-71
2023/07/03 07:16:14;;;;;;;12.25;2.75;;;18.90;99.90;;;;;;4848142;29;20368;-73
2023/07/03 07:18:41;;;;;;;10.40;2.28;;;18.90;99.90;;;;;;4841634;29;20044;-71
2023/07/03 07:21:08;;;;;;;15.10;3.50;;;18.90;99.90;;;;;;4821642;29;20052;-71
2023/07/03 07:23:35;;;;;;;12.75;3.25;;;18.90;99.90;;;;;;4836845;29;20043;-72
2023/07/03 07:26:01;;;;;;;10.50;2.88;;;19.00;99.90;;;;;;4839082;29;20487;-72
2023/07/03 07:28:27;;;;;;;22.98;5.20;;;19.00;99.90;;;;;;4839108;29;20158;-72
2023/07/03 07:30:54;;;;;;;16.63;3.28;;;19.00;99.90;;;;;;4839002;29;20475;-72
2023/07/03 07:33:22;;;;;;;13.82;3.20;;;19.00;99.90;;;;;;4843847;29;20477;-72
2023/07/03 07:35:50;;;;;;;10.93;2.25;;;19.10;99.90;;;;;;4847256;29;20060;-72
2023/07/03 07:38:16;;;;;;;9.95;2.80;;;19.20;99.90;;;;;;4837887;29;20040;-74
2023/07/03 07:40:43;;;;;;;12.27;2.90;;;19.30;99.90;;;;;;4822046;29;20387;-72
2023/07/03 07:43:10;;;;;;;14.43;2.70;;;19.30;99.90;;;;;;4833152;29;20041;-73
2023/07/03 07:45:37;;;;;;;10.57;2.55;;;19.40;99.90;;;;;;4844119;29;20029;-74
2023/07/03 07:48:04;;;;;;;13.00;2.92;;;19.50;99.90;;;;;;4822554;29;20040;-72
2023/07/03 07:50:34;;;;;;;12.00;2.83;;;19.60;99.90;;;;;;4844061;29;20045;-71
2023/07/03 07:53:00;;;;;;;14.90;3.58;;;19.60;99.90;;;;;;4840403;29;20033;-72
2023/07/03 07:55:27;;;;;;;13.35;2.92;;;19.60;99.90;;;;;;4840842;29;20037;-72
2023/07/03 07:57:53;;;;;;;17.13;3.75;;;19.70;99.90;;;;;;4820836;29;20045;-72
2023/07/03 08:00:20;;;;;;;9.32;3.13;;;19.80;99.90;;;;;;4816678;29;20052;-73
2023/07/03 08:02:46;;;;;;;14.07;3.40;;;19.90;99.90;;;;;;4817415;29;20041;-72
2023/07/03 08:05:12;;;;;;;14.10;3.58;;;20.20;99.90;;;;;;4818468;29;20044;-72
2023/07/03 08:07:39;;;;;;;12.25;3.33;;;20.40;99.90;;;;;;4810648;29;20059;-72
2023/07/03 08:10:05;;;;;;;12.23;3.55;;;20.60;99.90;;;;;;4831924;29;20044;-72
2023/07/03 08:12:32;;;;;;;7.50;2.55;;;20.70;99.90;;;;;;4839722;29;20040;-72
2023/07/03 08:14:58;;;;;;;16.92;3.50;;;20.80;99.90;;;;;;4821774;29;20048;-73
2023/07/03 08:17:25;;;;;;;11.13;2.88;;;20.80;99.90;;;;;;4836619;29;20377;-72
2023/07/03 08:19:51;;;;;;;15.90;3.67;;;20.70;99.90;;;;;;4832811;29;20029;-72
2023/07/03 08:22:17;;;;;;;15.48;3.08;;;20.70;99.90;;;;;;4816330;29;20492;-73
2023/07/03 08:24:44;;;;;;;14.55;3.33;;;20.80;99.90;;;;;;4839193;29;20075;-72
2023/07/03 08:27:11;;;;;;;14.27;3.67;;;21.10;99.90;;;;;;4842864;29;20036;-72
2023/07/03 08:29:37;;;;;;;14.35;2.83;;;21.40;99.90;;;;;;4844880;29;20048;-72
2023/07/03 08:32:05;;;;;;;13.35;2.97;;;21.60;99.90;;;;;;4833437;29;20520;-73
2023/07/03 08:34:32;;;;;;;9.60;2.88;;;21.70;99.90;;;;;;4825559;29;20029;-72
2023/07/03 08:36:58;;;;;;;14.45;3.15;;;21.70;99.90;;;;;;4831348;29;20041;-72
2023/07/03 08:39:24;;;;;;;10.43;2.22;;;21.60;99.90;;;;;;4832886;29;20056;-72
2023/07/03 08:41:59;;;;;;;9.15;2.53;;;21.50;99.90;;;;;;4814252;29;20044;-72
2023/07/03 08:44:25;;;;;;;14.27;2.95;;;21.70;99.90;;;;;;4840834;29;20049;-72
2023/07/03 08:46:52;;;;;;;10.63;2.72;;;21.90;99.90;;;;;;4846183;29;20479;-72
2023/07/03 08:49:23;;;;;;;17.52;2.95;;;22.00;99.60;;;;;;4838399;29;20041;-72
2023/07/03 08:51:52;;;;;;;13.27;3.13;;;22.30;99.10;;;;;;4830320;29;20037;-72
2023/07/03 08:54:25;;;;;;;10.32;2.30;;;22.40;98.70;;;;;;4833930;29;20038;-72
2023/07/03 08:56:53;;;;;;;13.30;2.60;;;22.50;98.60;;;;;;4835723;29;20049;-72
2023/07/03 08:59:19;;;;;;;10.00;2.08;;;22.50;97.70;;;;;;4834871;29;20045;-71
2023/07/03 09:02:14;;;;;;;9.32;2.25;;;22.20;97.60;;;;;;4813375;29;20136;-71
2023/07/03 09:05:01;;;;;;;10.23;1.85;;;21.90;97.60;;;;;;4848796;29;20032;-71
2023/07/03 09:07:37;;;;;;;10.70;1.52;;;21.50;97.40;;;;;;4846146;29;20048;-72
2023/07/03 09:10:12;;;;;;;6.88;1.40;;;21.20;97.20;;;;;;4837363;29;23059;-72
2023/07/03 09:13:05;;;;;;;9.32;1.77;;;20.90;97.30;;;;;;4835443;29;20037;-72
2023/07/03 09:15:50;;;;;;;9.95;1.77;;;20.90;97.10;;;;;;4839041;29;20063;-72
2023/07/03 09:18:22;;;;;;;6.47;2.30;;;21.00;97.10;;;;;;4841266;29;20048;-71
2023/07/03 09:20:49;;;;;;;7.15;1.50;;;21.10;96.90;;;;;;4841018;29;20396;-71
2023/07/03 09:23:23;;;;;;;8.65;1.38;;;21.10;96.90;;;;;;4844797;29;20033;-71
2023/07/03 09:26:14;;;;;;;5.88;1.88;;;21.30;97.00;;;;;;4843321;29;20044;-71
2023/07/03 09:28:42;;;;;;;9.38;2.03;;;21.50;97.10;;;;;;4837967;29;20068;-72
2023/07/03 09:31:09;;;;;;;9.00;2.45;;;21.70;97.10;;;;;;4833205;29;20044;-72
2023/07/03 09:33:35;;;;;;;8.50;1.73;;;22.10;96.70;;;;;;4836310;29;20596;-72
2023/07/03 09:36:29;;;;;;;7.88;1.40;;;22.10;96.10;;;;;;4838899;29;20497;-72
2023/07/03 09:38:55;;;;;;;9.25;1.85;;;21.80;95.90;;;;;;4841068;29;20045;-72
2023/07/03 09:41:33;;;;;;;9.88;1.80;;;21.50;95.70;;;;;;4844275;29;20036;-73
2023/07/03 09:44:15;;;;;;;8.93;1.80;;;21.20;95.50;;;;;;4850440;29;20181;-72
2023/07/03 09:46:42;;;;;;;8.35;1.48;;;20.80;95.70;;;;;;4843706;29;20362;-72
2023/07/03 09:49:15;;;;;;;7.47;1.65;;;20.50;96.00;;;;;;4842613;29;20055;-72
2023/07/03 09:51:41;;;;;;;7.53;1.67;;;20.40;96.30;;;;;;4838808;29;20037;-72
2023/07/03 09:54:18;;;;;;;7.32;1.40;;;20.30;96.60;;;;;;4823095;29;21565;-72
2023/07/03 09:56:46;;;;;;;7.88;1.58;;;20.30;96.90;;;;;;4839931;29;20049;-72
2023/07/03 09:59:16;;;;;;;9.52;1.35;;;20.50;97.10;;;;;;4833043;29;20041;-72
2023/07/03 10:01:43;;;;;;;12.85;2.38;;;20.80;97.20;;;;;;4843988;29;20060;-73
2023/07/03 10:04:13;;;;;;;11.80;2.17;;;21.10;97.10;;;;;;4812759;29;20038;-73
2023/07/03 10:06:50;;;;;;;11.13;2.15;;;21.60;96.80;;;;;;4823315;29;20048;-72
2023/07/03 10:09:19;;;;;;;9.10;1.73;;;22.10;96.00;;;;;;4836732;29;20036;-73
2023/07/03 10:12:09;;;;;;;9.73;2.47;;;22.40;95.60;;;;;;4834933;29;20051;-72
2023/07/03 10:14:54;;;;;;;11.07;2.17;;;22.60;95.10;;;;;;4823292;29;20045;-73
2023/07/03 10:17:30;;;;;;;9.07;1.80;;;22.40;94.70;;;;;;4848245;29;20411;-73
2023/07/03 10:20:08;;;;;;;7.13;1.50;;;22.10;94.60;;;;;;4831486;29;20044;-72
2023/07/03 10:22:34;;;;;;;7.95;1.40;;;21.90;94.80;;;;;;4836620;29;20041;-72
2023/07/03 10:25:05;;;;;;;9.07;1.60;;;21.70;95.30;;;;;;4822177;29;20042;-73
2023/07/03 10:27:33;;;;;;;11.35;2.72;;;21.40;95.70;;;;;;4840926;29;20477;-73
2023/07/03 10:30:04;;;;;;;7.78;1.70;;;21.20;96.00;;;;;;4838699;29;20048;-73
2023/07/03 10:32:33;;;;;;;5.18;1.10;;;21.10;96.00;;;;;;4820194;29;20037;-72
2023/07/03 10:35:10;;;;;;;8.57;1.73;;;20.90;95.90;;;;;;4845894;29;20033;-73
2023/07/03 10:37:44;;;;;;;10.27;1.70;;;20.90;95.80;;;;;;4848395;29;20037;-72
2023/07/03 10:40:19;;;;;;;7.07;1.02;;;21.10;95.40;;;;;;4840287;29;20036;-73
2023/07/03 10:42:51;;;;;;;6.75;1.48;;;21.40;95.20;;;;;;4834906;29;20358;-73
2023/07/03 10:45:18;;;;;;;5.55;0.98;;;21.60;94.70;;;;;;4837070;29;20362;-72
2023/07/03 10:47:52;;;;;;;9.13;1.23;;;21.60;94.00;;;;;;4836872;29;20048;-72
2023/07/03 10:50:28;;;;;;;5.88;1.10;;;21.50;93.60;;;;;;4838390;29;20041;-73
2023/07/03 10:53:02;;;;;;;4.95;0.85;;;21.30;93.60;;;;;;4827253;29;20946;-72
2023/07/03 10:55:37;;;;;;;6.45;1.40;;;21.20;93.60;;;;;;4833921;29;20138;-73
2023/07/03 10:58:14;;;;;;;8.45;1.83;;;21.00;93.70;;;;;;4840153;29;20050;-74
2023/07/03 11:00:55;;;;;;;9.23;1.17;;;20.80;93.70;;;;;;4837073;29;20038;-73
2023/07/03 11:03:27;;;;;;;6.70;1.25;;;20.60;93.90;;;;;;4833144;29;20033;-72
2023/07/03 11:06:27;;;;;;;9.63;1.83;;;20.50;94.10;;;;;;4837405;29;20056;-73
2023/07/03 11:09:29;;;;;;;7.07;0.98;;;20.50;94.20;;;;;;4830302;29;20052;-73
2023/07/03 11:12:04;;;;;;;5.32;0.93;;;20.60;94.30;;;;;;4842603;29;20052;-73
2023/07/03 11:14:46;;;;;;;4.97;1.25;;;20.70;94.20;;;;;;4846809;29;20037;-72
2023/07/03 11:17:17;;;;;;;7.75;1.20;;;20.80;94.20;;;;;;4837892;29;20412;-72
2023/07/03 11:20:12;;;;;;;8.98;1.42;;;20.70;93.90;;;;;;4833191;29;20033;-73
2023/07/03 11:23:08;;;;;;;5.90;1.38;;;20.60;93.70;;;;;;4830881;29;20033;-74
2023/07/03 11:25:45;;;;;;;7.38;1.33;;;20.40;93.60;;;;;;4836445;29;20373;-73
2023/07/03 11:28:41;;;;;;;8.00;1.38;;;20.30;93.60;;;;;;4840741;29;20045;-72
2023/07/03 11:31:09;;;;;;;6.97;1.75;;;20.40;93.80;;;;;;4840862;29;20392;-73
2023/07/03 11:33:36;;;;;;;13.60;2.22;;;20.40;93.90;;;;;;4840663;29;20036;-72
2023/07/03 11:36:04;;;;;;;12.55;2.05;;;20.40;93.70;;;;;;4838616;29;20038;-72
2023/07/03 11:38:34;;;;;;;6.53;1.23;;;20.50;93.40;;;;;;4835511;29;20052;-72
2023/07/03 11:41:02;;;;;;;7.60;1.42;;;20.70;93.10;;;;;;4817263;29;20049;-73
2023/07/03 11:43:29;;;;;;;8.80;1.17;;;20.90;92.80;;;;;;4832564;29;20748;-73
2023/07/03 11:45:58;;;;;;;5.38;0.73;;;21.30;92.60;;;;;;4837724;29;20044;-73
2023/07/03 11:48:36;;;;;;;4.18;0.90;;;21.80;92.00;;;;;;4846161;29;20045;-73
2023/07/03 11:51:08;;;;;;;6.05;1.13;;;22.70;91.60;;;;;;4842409;29;20052;-73
2023/07/03 11:53:36;;;;;;;8.07;1.73;;;23.50;90.50;;;;;;4833667;29;20025;-72
2023/07/03 11:56:04;;;;;;;6.00;1.30;;;23.60;87.90;;;;;;4836251;29;20052;-73
2023/07/03 11:58:33;;;;;;;11.70;1.30;;;23.50;86.50;;;;;;4835323;29;20040;-72
2023/07/03 12:01:20;;;;;;;8.60;1.63;;;23.30;86.80;;;;;;4802782;29;20041;-73
2023/07/03 12:04:02;;;;;;;6.25;1.38;;;23.30;87.70;;;;;;4830943;29;20049;-73
2023/07/03 12:06:43;;;;;;;8.57;1.17;;;23.70;87.80;;;;;;4861555;29;20404;-73
2023/07/03 12:09:20;;;;;;;6.10;1.85;;;23.80;86.80;;;;;;4812892;29;20377;-73
2023/07/03 12:12:07;;;;;;;7.00;1.27;;;23.50;86.10;;;;;;4830928;29;20374;-73
2023/07/03 12:14:39;;;;;;;9.75;2.15;;;23.00;86.30;;;;;;4820304;29;20045;-73
2023/07/03 12:17:15;;;;;;;7.20;1.40;;;22.60;87.10;;;;;;4835844;29;20056;-73
2023/07/03 12:19:41;;;;;;;9.30;1.67;;;22.30;87.80;;;;;;4818286;29;20056;-73
2023/07/03 12:22:07;;;;;;;9.80;1.38;;;21.90;88.60;;;;;;4832959;29;20567;-73
2023/07/03 12:24:34;;;;;;;7.22;1.10;;;21.60;89.60;;;;;;4831431;29;20036;-73
2023/07/03 12:27:03;;;;;;;7.85;1.27;;;21.50;90.00;;;;;;4845699;29;20053;-73
2023/07/03 12:29:32;;;;;;;6.10;1.20;;;21.70;90.30;;;;;;4838821;29;20037;-72
2023/07/03 12:32:10;;;;;;;7.28;1.17;;;21.80;90.40;;;;;;4830953;29;20032;-72
2023/07/03 12:34:42;;;;;;;7.63;1.55;;;22.50;90.70;;;;;;4821424;29;20536;-73
2023/07/03 12:37:17;;;;;;;8.02;1.73;;;23.90;89.60;;;;;;4836789;29;20072;-72
2023/07/03 12:39:45;;;;;;;7.22;1.30;;;24.20;87.20;;;;;;4834224;29;20037;-72
2023/07/03 12:42:24;;;;;;;5.72;1.10;;;23.90;86.60;;;;;;4821059;29;20060;-72
2023/07/03 12:44:52;;;;;;;8.30;1.23;;;23.60;87.00;;;;;;4845001;29;20036;-72
2023/07/03 12:47:20;;;;;;;5.90;1.00;;;23.40;86.80;;;;;;4828345;29;20847;-71
2023/07/03 12:49:55;;;;;;;4.57;0.90;;;23.20;86.30;;;;;;4839865;29;20024;-71
2023/07/03 12:52:30;;;;;;;8.68;1.38;;;22.90;85.30;;;;;;4816197;29;20049;-73
2023/07/03 12:54:57;;;;;;;5.60;0.80;;;22.70;84.70;;;;;;4841139;29;20402;-72